sensor_id;sensor_type;location;lat;lon;timestamp;P1;durP1;ratioP1;P2;durP2;ratioP2
9906;SDS011;4992;51.628;6.664;2023-12-29T00:00:33;4.78;;;1.50;;
9906;SDS011;4992;51.628;6.664;2023-12-29T00:02:59;4.43;;;1.30;;
9906;SDS011;4992;51.628;6.664;2023-12-29T00:05:24;7.93;;;2.08;;
9906;SDS011;4992;51.628;6.664;2023-12-29T00:07:50;8.07;;;1.40;;
9906;SDS011;4992;51.628;6.664;2023-12-29T00:10:15;6.13;;;1.45;;
9906;SDS011;4992;51.628;6.664;2023-12-29T00:12:41;6.70;;;1.88;;
9906;SDS011;4992;51.628;6.664;2023-12-29T00:15:07;7.78;;;1.27;;
9906;SDS011;4992;51.628;6.664;2023-12-29T00:17:33;6.43;;;1.30;;
9906;SDS011;4992;51.628;6.664;2023-12-29T00:20:02;8.50;;;1.35;;
9906;SDS011;4992;51.628;6.664;2023-12-29T00:22:29;8.55;;;1.75;;
9906;SDS011;4992;51.628;6.664;2023-12-29T00:24:54;6.53;;;1.55;;
9906;SDS011;4992;51.628;6.664;2023-12-29T00:27:20;6.30;;;1.92;;
9906;SDS011;4992;51.628;6.664;2023-12-29T00:29:46;5.30;;;1.55;;
9906;SDS011;4992;51.628;6.664;2023-12-29T00:32:11;3.50;;;1.17;;
9906;SDS011;4992;51.628;6.664;2023-12-29T00:34:37;8.18;;;1.40;;
9906;SDS011;4992;51.628;6.664;2023-12-29T00:37:02;3.25;;;1.23;;
9906;SDS011;4992;51.628;6.664;2023-12-29T00:39:28;4.75;;;1.40;;
9906;SDS011;4992;51.628;6.664;2023-12-29T00:41:55;6.38;;;1.42;;
9906;SDS011;4992;51.628;6.664;2023-12-29T00:44:22;5.80;;;1.45;;
9906;SDS011;4992;51.628;6.664;2023-12-29T00:46:48;4.05;;;1.20;;
9906;SDS011;4992;51.628;6.664;2023-12-29T00:49:14;5.00;;;1.33;;
9906;SDS011;4992;51.628;6.664;2023-12-29T00:51:40;8.20;;;1.30;;
9906;SDS011;4992;51.628;6.664;2023-12-29T00:54:08;8.93;;;1.70;;
9906;SDS011;4992;51.628;6.664;2023-12-29T00:56:34;5.15;;;1.67;;
9906;SDS011;4992;51.628;6.664;2023-12-29T00:58:59;7.07;;;2.28;;
9906;SDS011;4992;51.628;6.664;2023-12-29T01:01:25;5.18;;;1.70;;
9906;SDS011;4992;51.628;6.664;2023-12-29T01:03:50;5.47;;;1.13;;
9906;SDS011;4992;51.628;6.664;2023-12-29T01:06:19;6.55;;;1.85;;
9906;SDS011;4992;51.628;6.664;2023-12-29T01:08:45;4.75;;;1.38;;
9906;SDS011;4992;51.628;6.664;2023-12-29T01:11:10;4.00;;;1.20;;
9906;SDS011;4992;51.628;6.664;2023-12-29T01:13:36;6.05;;;1.27;;
9906;SDS011;4992;51.628;6.664;2023-12-29T01:16:02;4.30;;;1.48;;
9906;SDS011;4992;51.628;6.664;2023-12-29T01:18:27;5.68;;;1.23;;
9906;SDS011;4992;51.628;6.664;2023-12-29T01:20:53;6.00;;;1.23;;
9906;SDS011;4992;51.628;6.664;2023-12-29T01:23:18;6.28;;;1.13;;
9906;SDS011;4992;51.628;6.664;2023-12-29T01:25:44;5.68;;;1.50;;
9906;SDS011;4992;51.628;6.664;2023-12-29T01:28:10;3.75;;;1.30;;
9906;SDS011;4992;51.628;6.664;2023-12-29T01:30:35;3.25;;;0.98;;
9906;SDS011;4992;51.628;6.664;2023-12-29T01:33:01;6.82;;;1.50;;
9906;SDS011;4992;51.628;6.664;2023-12-29T01:35:26;6.53;;;1.73;;
9906;SDS011;4992;51.628;6.664;2023-12-29T01:37:52;8.13;;;1.75;;
9906;SDS011;4992;51.628;6.664;2023-12-29T01:40:17;5.20;;;1.58;;
9906;SDS011;4992;51.628;6.664;2023-12-29T01:42:43;5.38;;;1.40;;
9906;SDS011;4992;51.628;6.664;2023-12-29T01:45:13;5.60;;;1.60;;
9906;SDS011;4992;51.628;6.664;2023-12-29T01:47:46;8.02;;;1.77;;
9906;SDS011;4992;51.628;6.664;2023-12-29T01:50:12;7.13;;;1.50;;
9906;SDS011;4992;51.628;6.664;2023-12-29T01:52:37;6.90;;;1.55;;
9906;SDS011;4992;51.628;6.664;2023-12-29T01:55:03;7.03;;;1.33;;
9906;SDS011;4992;51.628;6.664;2023-12-29T01:57:30;5.32;;;1.23;;
9906;SDS011;4992;51.628;6.664;2023-12-29T02:00:00;7.53;;;1.52;;
9906;SDS011;4992;51.628;6.664;2023-12-29T02:02:25;8.55;;;1.80;;
9906;SDS011;4992;51.628;6.664;2023-12-29T02:04:51;12.77;;;2.90;;
9906;SDS011;4992;51.628;6.664;2023-12-29T02:07:16;6.85;;;1.83;;
9906;SDS011;4992;51.628;6.664;2023-12-29T02:09:44;8.93;;;2.72;;
9906;SDS011;4992;51.628;6.664;2023-12-29T02:12:09;9.35;;;2.05;;
9906;SDS011;4992;51.628;6.664;2023-12-29T02:14:35;10.98;;;2.22;;
9906;SDS011;4992;51.628;6.664;2023-12-29T02:17:02;8.97;;;1.73;;
9906;SDS011;4992;51.628;6.664;2023-12-29T02:19:41;11.53;;;2.03;;
9906;SDS011;4992;51.628;6.664;2023-12-29T02:22:11;8.10;;;1.87;;
9906;SDS011;4992;51.628;6.664;2023-12-29T02:24:38;5.87;;;2.17;;
9906;SDS011;4992;51.628;6.664;2023-12-29T02:29:51;9.57;;;2.37;;
9906;SDS011;4992;51.628;6.664;2023-12-29T02:32:31;8.17;;;1.93;;
9906;SDS011;4992;51.628;6.664;2023-12-29T02:34:58;5.70;;;1.93;;
9906;SDS011;4992;51.628;6.664;2023-12-29T02:37:26;11.30;;;2.10;;
9906;SDS011;4992;51.628;6.664;2023-12-29T02:39:54;9.73;;;2.40;;
9906;SDS011;4992;51.628;6.664;2023-12-29T02:42:21;8.57;;;2.70;;
9906;SDS011;4992;51.628;6.664;2023-12-29T02:44:46;12.07;;;2.80;;
9906;SDS011;4992;51.628;6.664;2023-12-29T02:47:12;9.17;;;2.33;;
9906;SDS011;4992;51.628;6.664;2023-12-29T02:49:37;13.03;;;2.70;;
9906;SDS011;4992;51.628;6.664;2023-12-29T02:52:03;8.60;;;2.47;;
9906;SDS011;4992;51.628;6.664;2023-12-29T02:54:29;7.53;;;2.33;;
9906;SDS011;4992;51.628;6.664;2023-12-29T02:56:54;12.30;;;3.10;;
9906;SDS011;4992;51.628;6.664;2023-12-29T02:59:21;11.40;;;2.30;;
9906;SDS011;4992;51.628;6.664;2023-12-29T03:01:46;10.30;;;2.27;;
9906;SDS011;4992;51.628;6.664;2023-12-29T03:04:12;12.77;;;2.20;;
9906;SDS011;4992;51.628;6.664;2023-12-29T03:06:37;7.07;;;2.00;;
9906;SDS011;4992;51.628;6.664;2023-12-29T03:09:03;9.00;;;2.57;;
9906;SDS011;4992;51.628;6.664;2023-12-29T03:11:29;9.50;;;2.30;;
9906;SDS011;4992;51.628;6.664;2023-12-29T03:13:54;10.07;;;2.50;;
9906;SDS011;4992;51.628;6.664;2023-12-29T03:16:20;8.83;;;2.13;;
9906;SDS011;4992;51.628;6.664;2023-12-29T03:18:45;12.23;;;2.20;;
9906;SDS011;4992;51.628;6.664;2023-12-29T03:21:11;10.87;;;2.30;;
9906;SDS011;4992;51.628;6.664;2023-12-29T03:23:36;8.33;;;1.93;;
9906;SDS011;4992;51.628;6.664;2023-12-29T03:26:02;8.20;;;2.13;;
9906;SDS011;4992;51.628;6.664;2023-12-29T03:28:27;7.47;;;1.67;;
9906;SDS011;4992;51.628;6.664;2023-12-29T03:30:53;10.80;;;2.13;;
9906;SDS011;4992;51.628;6.664;2023-12-29T03:33:18;8.27;;;1.92;;
9906;SDS011;4992;51.628;6.664;2023-12-29T03:35:44;9.30;;;1.60;;
9906;SDS011;4992;51.628;6.664;2023-12-29T03:38:09;7.47;;;2.20;;
9906;SDS011;4992;51.628;6.664;2023-12-29T03:40:35;9.17;;;1.73;;
9906;SDS011;4992;51.628;6.664;2023-12-29T03:43:00;12.80;;;2.00;;
9906;SDS011;4992;51.628;6.664;2023-12-29T03:45:26;9.10;;;1.92;;
9906;SDS011;4992;51.628;6.664;2023-12-29T03:47:51;12.88;;;2.75;;
9906;SDS011;4992;51.628;6.664;2023-12-29T03:50:17;8.38;;;1.75;;
9906;SDS011;4992;51.628;6.664;2023-12-29T03:52:42;8.37;;;1.97;;
9906;SDS011;4992;51.628;6.664;2023-12-29T03:55:08;6.13;;;2.37;;
9906;SDS011;4992;51.628;6.664;2023-12-29T03:57:33;7.32;;;2.08;;
9906;SDS011;4992;51.628;6.664;2023-12-29T03:59:59;7.50;;;1.75;;
9906;SDS011;4992;51.628;6.664;2023-12-29T04:02:24;11.98;;;1.92;;
9906;SDS011;4992;51.628;6.664;2023-12-29T04:04:50;7.43;;;2.00;;
9906;SDS011;4992;51.628;6.664;2023-12-29T04:07:16;8.43;;;1.42;;
9906;SDS011;4992;51.628;6.664;2023-12-29T04:09:41;10.63;;;1.88;;
9906;SDS011;4992;51.628;6.664;2023-12-29T04:12:07;8.88;;;1.80;;
9906;SDS011;4992;51.628;6.664;2023-12-29T04:14:33;11.57;;;1.70;;
9906;SDS011;4992;51.628;6.664;2023-12-29T04:16:58;8.70;;;1.70;;
9906;SDS011;4992;51.628;6.664;2023-12-29T04:19:25;6.53;;;1.90;;
9906;SDS011;4992;51.628;6.664;2023-12-29T04:21:50;4.82;;;1.30;;
9906;SDS011;4992;51.628;6.664;2023-12-29T04:24:17;12.83;;;2.23;;
9906;SDS011;4992;51.628;6.664;2023-12-29T04:26:42;14.73;;;2.25;;
9906;SDS011;4992;51.628;6.664;2023-12-29T04:29:08;5.97;;;1.55;;
9906;SDS011;4992;51.628;6.664;2023-12-29T04:31:33;5.22;;;1.67;;
9906;SDS011;4992;51.628;6.664;2023-12-29T04:33:59;7.85;;;2.22;;
9906;SDS011;4992;51.628;6.664;2023-12-29T04:36:24;5.30;;;1.33;;
9906;SDS011;4992;51.628;6.664;2023-12-29T04:38:50;7.03;;;1.50;;
9906;SDS011;4992;51.628;6.664;2023-12-29T04:41:15;7.07;;;1.63;;
9906;SDS011;4992;51.628;6.664;2023-12-29T04:43:41;8.43;;;1.60;;
9906;SDS011;4992;51.628;6.664;2023-12-29T04:46:06;5.50;;;1.58;;
9906;SDS011;4992;51.628;6.664;2023-12-29T04:48:32;5.57;;;1.50;;
9906;SDS011;4992;51.628;6.664;2023-12-29T04:50:57;8.80;;;1.30;;
9906;SDS011;4992;51.628;6.664;2023-12-29T04:53:23;7.82;;;1.52;;
9906;SDS011;4992;51.628;6.664;2023-12-29T04:55:48;5.70;;;1.65;;
9906;SDS011;4992;51.628;6.664;2023-12-29T04:58:14;7.55;;;1.80;;
9906;SDS011;4992;51.628;6.664;2023-12-29T05:00:39;12.30;;;1.77;;
9906;SDS011;4992;51.628;6.664;2023-12-29T05:03:05;8.60;;;1.63;;
9906;SDS011;4992;51.628;6.664;2023-12-29T05:05:31;4.55;;;1.17;;
9906;SDS011;4992;51.628;6.664;2023-12-29T05:07:56;7.82;;;1.60;;
9906;SDS011;4992;51.628;6.664;2023-12-29T05:10:22;12.23;;;2.40;;
9906;SDS011;4992;51.628;6.664;2023-12-29T05:12:47;7.68;;;1.40;;
9906;SDS011;4992;51.628;6.664;2023-12-29T05:15:13;8.35;;;2.33;;
9906;SDS011;4992;51.628;6.664;2023-12-29T05:17:38;9.35;;;1.80;;
9906;SDS011;4992;51.628;6.664;2023-12-29T05:20:05;7.07;;;1.45;;
9906;SDS011;4992;51.628;6.664;2023-12-29T05:22:31;6.13;;;1.88;;
9906;SDS011;4992;51.628;6.664;2023-12-29T05:24:57;7.38;;;1.70;;
9906;SDS011;4992;51.628;6.664;2023-12-29T05:27:25;5.55;;;1.60;;
9906;SDS011;4992;51.628;6.664;2023-12-29T05:29:51;8.25;;;1.60;;
9906;SDS011;4992;51.628;6.664;2023-12-29T05:32:16;8.82;;;1.60;;
9906;SDS011;4992;51.628;6.664;2023-12-29T05:34:42;9.75;;;1.55;;
9906;SDS011;4992;51.628;6.664;2023-12-29T05:37:08;10.50;;;1.50;;
9906;SDS011;4992;51.628;6.664;2023-12-29T05:39:33;8.15;;;1.73;;
9906;SDS011;4992;51.628;6.664;2023-12-29T05:41:59;9.07;;;1.52;;
9906;SDS011;4992;51.628;6.664;2023-12-29T05:44:24;7.40;;;1.95;;
9906;SDS011;4992;51.628;6.664;2023-12-29T05:46:50;10.13;;;1.67;;
9906;SDS011;4992;51.628;6.664;2023-12-29T05:49:16;5.38;;;1.30;;
9906;SDS011;4992;51.628;6.664;2023-12-29T05:51:42;4.75;;;1.33;;
9906;SDS011;4992;51.628;6.664;2023-12-29T05:54:09;4.75;;;1.23;;
9906;SDS011;4992;51.628;6.664;2023-12-29T05:56:34;6.50;;;2.10;;
9906;SDS011;4992;51.628;6.664;2023-12-29T05:59:00;9.73;;;1.63;;
9906;SDS011;4992;51.628;6.664;2023-12-29T06:01:25;6.47;;;1.38;;
9906;SDS011;4992;51.628;6.664;2023-12-29T06:03:51;9.20;;;1.88;;
9906;SDS011;4992;51.628;6.664;2023-12-29T06:06:16;9.63;;;2.55;;
9906;SDS011;4992;51.628;6.664;2023-12-29T06:08:42;8.55;;;1.25;;
9906;SDS011;4992;51.628;6.664;2023-12-29T06:11:08;8.48;;;2.08;;
9906;SDS011;4992;51.628;6.664;2023-12-29T06:13:33;6.47;;;1.58;;
9906;SDS011;4992;51.628;6.664;2023-12-29T06:15:59;9.68;;;1.70;;
9906;SDS011;4992;51.628;6.664;2023-12-29T06:18:24;10.32;;;2.10;;
9906;SDS011;4992;51.628;6.664;2023-12-29T06:20:50;7.22;;;1.40;;
9906;SDS011;4992;51.628;6.664;2023-12-29T06:23:16;8.48;;;1.75;;
9906;SDS011;4992;51.628;6.664;2023-12-29T06:25:42;5.43;;;1.38;;
9906;SDS011;4992;51.628;6.664;2023-12-29T06:28:07;6.97;;;1.23;;
9906;SDS011;4992;51.628;6.664;2023-12-29T06:30:33;8.75;;;2.25;;
9906;SDS011;4992;51.628;6.664;2023-12-29T06:32:59;7.82;;;2.08;;
9906;SDS011;4992;51.628;6.664;2023-12-29T06:35:24;6.00;;;1.38;;
9906;SDS011;4992;51.628;6.664;2023-12-29T06:37:50;7.13;;;1.77;;
9906;SDS011;4992;51.628;6.664;2023-12-29T06:40:16;7.32;;;1.50;;
9906;SDS011;4992;51.628;6.664;2023-12-29T06:42:41;7.47;;;1.98;;
9906;SDS011;4992;51.628;6.664;2023-12-29T06:45:07;6.70;;;1.80;;
9906;SDS011;4992;51.628;6.664;2023-12-29T06:47:33;5.97;;;1.42;;
9906;SDS011;4992;51.628;6.664;2023-12-29T06:49:59;6.95;;;1.63;;
9906;SDS011;4992;51.628;6.664;2023-12-29T06:52:24;6.22;;;1.15;;
9906;SDS011;4992;51.628;6.664;2023-12-29T06:54:51;7.57;;;2.22;;
9906;SDS011;4992;51.628;6.664;2023-12-29T06:57:17;6.07;;;1.98;;
9906;SDS011;4992;51.628;6.664;2023-12-29T06:59:42;7.55;;;1.90;;
9906;SDS011;4992;51.628;6.664;2023-12-29T07:02:08;6.95;;;1.50;;
9906;SDS011;4992;51.628;6.664;2023-12-29T07:04:33;11.60;;;1.90;;
9906;SDS011;4992;51.628;6.664;2023-12-29T07:06:59;12.02;;;2.30;;
9906;SDS011;4992;51.628;6.664;2023-12-29T07:09:26;6.72;;;1.33;;
9906;SDS011;4992;51.628;6.664;2023-12-29T07:11:51;7.93;;;1.67;;
9906;SDS011;4992;51.628;6.664;2023-12-29T07:14:17;6.95;;;1.30;;
9906;SDS011;4992;51.628;6.664;2023-12-29T07:16:43;5.40;;;1.15;;
9906;SDS011;4992;51.628;6.664;2023-12-29T07:19:09;7.10;;;1.92;;
9906;SDS011;4992;51.628;6.664;2023-12-29T07:21:34;7.13;;;1.40;;
9906;SDS011;4992;51.628;6.664;2023-12-29T07:24:00;5.90;;;1.60;;
9906;SDS011;4992;51.628;6.664;2023-12-29T07:26:25;5.90;;;1.15;;
9906;SDS011;4992;51.628;6.664;2023-12-29T07:28:51;7.00;;;1.83;;
9906;SDS011;4992;51.628;6.664;2023-12-29T07:31:19;6.10;;;1.37;;
9906;SDS011;4992;51.628;6.664;2023-12-29T07:33:45;9.27;;;1.52;;
9906;SDS011;4992;51.628;6.664;2023-12-29T07:36:11;4.80;;;1.17;;
9906;SDS011;4992;51.628;6.664;2023-12-29T07:38:37;8.13;;;1.52;;
9906;SDS011;4992;51.628;6.664;2023-12-29T07:41:03;10.02;;;1.80;;
9906;SDS011;4992;51.628;6.664;2023-12-29T07:43:28;4.55;;;1.33;;
9906;SDS011;4992;51.628;6.664;2023-12-29T07:45:54;10.60;;;1.80;;
9906;SDS011;4992;51.628;6.664;2023-12-29T07:48:19;9.15;;;1.40;;
9906;SDS011;4992;51.628;6.664;2023-12-29T07:50:45;6.00;;;1.75;;
9906;SDS011;4992;51.628;6.664;2023-12-29T07:53:10;7.30;;;1.17;;
9906;SDS011;4992;51.628;6.664;2023-12-29T07:55:39;6.97;;;1.63;;
9906;SDS011;4992;51.628;6.664;2023-12-29T07:58:05;7.25;;;1.83;;
9906;SDS011;4992;51.628;6.664;2023-12-29T08:00:31;7.03;;;1.55;;
9906;SDS011;4992;51.628;6.664;2023-12-29T08:02:56;5.47;;;1.33;;
9906;SDS011;4992;51.628;6.664;2023-12-29T08:05:24;7.77;;;1.60;;
9906;SDS011;4992;51.628;6.664;2023-12-29T08:07:50;7.15;;;1.58;;
9906;SDS011;4992;51.628;6.664;2023-12-29T08:10:15;7.03;;;1.65;;
9906;SDS011;4992;51.628;6.664;2023-12-29T08:12:41;5.65;;;1.55;;
9906;SDS011;4992;51.628;6.664;2023-12-29T08:15:06;7.80;;;1.58;;
9906;SDS011;4992;51.628;6.664;2023-12-29T08:17:32;5.07;;;1.42;;
9906;SDS011;4992;51.628;6.664;2023-12-29T08:19:57;7.13;;;1.70;;
9906;SDS011;4992;51.628;6.664;2023-12-29T08:22:23;9.73;;;1.20;;
9906;SDS011;4992;51.628;6.664;2023-12-29T08:24:48;9.82;;;1.50;;
9906;SDS011;4992;51.628;6.664;2023-12-29T08:27:14;10.57;;;1.48;;
9906;SDS011;4992;51.628;6.664;2023-12-29T08:29:47;7.17;;;2.10;;
9906;SDS011;4992;51.628;6.664;2023-12-29T08:32:13;7.38;;;2.03;;
9906;SDS011;4992;51.628;6.664;2023-12-29T08:34:39;5.72;;;1.27;;
9906;SDS011;4992;51.628;6.664;2023-12-29T08:37:05;6.07;;;1.70;;
9906;SDS011;4992;51.628;6.664;2023-12-29T08:39:31;6.75;;;1.83;;
9906;SDS011;4992;51.628;6.664;2023-12-29T08:41:56;3.47;;;1.27;;
9906;SDS011;4992;51.628;6.664;2023-12-29T08:44:22;3.47;;;1.20;;
9906;SDS011;4992;51.628;6.664;2023-12-29T08:46:48;6.70;;;1.50;;
9906;SDS011;4992;51.628;6.664;2023-12-29T08:49:13;8.60;;;1.30;;
9906;SDS011;4992;51.628;6.664;2023-12-29T08:51:39;3.33;;;1.20;;
9906;SDS011;4992;51.628;6.664;2023-12-29T08:54:04;3.38;;;1.10;;
9906;SDS011;4992;51.628;6.664;2023-12-29T08:56:30;4.22;;;1.02;;
9906;SDS011;4992;51.628;6.664;2023-12-29T08:58:55;3.55;;;1.08;;
9906;SDS011;4992;51.628;6.664;2023-12-29T09:01:21;3.53;;;0.80;;
9906;SDS011;4992;51.628;6.664;2023-12-29T09:03:47;5.75;;;1.27;;
9906;SDS011;4992;51.628;6.664;2023-12-29T09:06:13;3.15;;;1.05;;
9906;SDS011;4992;51.628;6.664;2023-12-29T09:08:38;2.97;;;0.68;;
9906;SDS011;4992;51.628;6.664;2023-12-29T09:11:04;3.65;;;0.90;;
9906;SDS011;4992;51.628;6.664;2023-12-29T09:13:30;3.78;;;0.70;;
9906;SDS011;4992;51.628;6.664;2023-12-29T09:15:56;3.03;;;0.80;;
9906;SDS011;4992;51.628;6.664;2023-12-29T09:18:23;1.75;;;0.60;;
9906;SDS011;4992;51.628;6.664;2023-12-29T09:20:49;2.33;;;0.60;;
9906;SDS011;4992;51.628;6.664;2023-12-29T09:23:15;3.35;;;0.73;;
9906;SDS011;4992;51.628;6.664;2023-12-29T09:25:40;4.50;;;1.10;;
9906;SDS011;4992;51.628;6.664;2023-12-29T09:28:06;3.10;;;0.63;;
9906;SDS011;4992;51.628;6.664;2023-12-29T09:30:32;4.63;;;0.70;;
9906;SDS011;4992;51.628;6.664;2023-12-29T09:32:58;4.57;;;0.68;;
9906;SDS011;4992;51.628;6.664;2023-12-29T09:35:23;3.50;;;0.70;;
9906;SDS011;4992;51.628;6.664;2023-12-29T09:37:49;3.85;;;0.70;;
9906;SDS011;4992;51.628;6.664;2023-12-29T09:40:15;3.47;;;0.60;;
9906;SDS011;4992;51.628;6.664;2023-12-29T09:42:44;3.55;;;0.90;;
9906;SDS011;4992;51.628;6.664;2023-12-29T09:45:13;2.83;;;0.60;;
9906;SDS011;4992;51.628;6.664;2023-12-29T09:47:39;4.22;;;0.52;;
9906;SDS011;4992;51.628;6.664;2023-12-29T09:50:07;3.22;;;0.50;;
9906;SDS011;4992;51.628;6.664;2023-12-29T09:52:36;2.03;;;0.47;;
9906;SDS011;4992;51.628;6.664;2023-12-29T09:55:04;1.42;;;0.38;;
9906;SDS011;4992;51.628;6.664;2023-12-29T09:57:34;2.30;;;1.00;;
9906;SDS011;4992;51.628;6.664;2023-12-29T10:00:02;1.17;;;0.45;;
9906;SDS011;4992;51.628;6.664;2023-12-29T10:02:28;1.40;;;0.40;;
9906;SDS011;4992;51.628;6.664;2023-12-29T10:04:54;0.68;;;0.30;;
9906;SDS011;4992;51.628;6.664;2023-12-29T10:07:23;2.22;;;0.40;;
9906;SDS011;4992;51.628;6.664;2023-12-29T10:09:52;2.25;;;0.47;;
9906;SDS011;4992;51.628;6.664;2023-12-29T10:12:20;1.40;;;0.43;;
9906;SDS011;4992;51.628;6.664;2023-12-29T10:17:34;1.27;;;0.70;;
9906;SDS011;4992;51.628;6.664;2023-12-29T10:23:10;0.30;;;0.30;;
9906;SDS011;4992;51.628;6.664;2023-12-29T10:25:38;0.50;;;0.20;;
9906;SDS011;4992;51.628;6.664;2023-12-29T10:28:04;0.40;;;0.30;;
9906;SDS011;4992;51.628;6.664;2023-12-29T10:30:32;1.38;;;0.30;;
9906;SDS011;4992;51.628;6.664;2023-12-29T10:32:59;1.13;;;0.52;;
9906;SDS011;4992;51.628;6.664;2023-12-29T10:35:25;0.93;;;0.43;;
9906;SDS011;4992;51.628;6.664;2023-12-29T10:37:51;1.45;;;0.38;;
9906;SDS011;4992;51.628;6.664;2023-12-29T10:40:20;1.27;;;0.38;;
9906;SDS011;4992;51.628;6.664;2023-12-29T10:42:52;1.15;;;0.40;;
9906;SDS011;4992;51.628;6.664;2023-12-29T10:45:19;0.85;;;0.35;;
9906;SDS011;4992;51.628;6.664;2023-12-29T10:47:45;0.30;;;0.30;;
9906;SDS011;4992;51.628;6.664;2023-12-29T10:50:11;1.25;;;0.40;;
9906;SDS011;4992;51.628;6.664;2023-12-29T10:52:37;1.02;;;0.40;;
9906;SDS011;4992;51.628;6.664;2023-12-29T10:55:06;3.40;;;0.50;;
9906;SDS011;4992;51.628;6.664;2023-12-29T10:57:33;0.55;;;0.30;;
9906;SDS011;4992;51.628;6.664;2023-12-29T10:59:59;2.08;;;0.50;;
9906;SDS011;4992;51.628;6.664;2023-12-29T11:02:28;1.40;;;0.35;;
9906;SDS011;4992;51.628;6.664;2023-12-29T11:05:09;1.13;;;0.50;;
9906;SDS011;4992;51.628;6.664;2023-12-29T11:07:39;0.57;;;0.40;;
9906;SDS011;4992;51.628;6.664;2023-12-29T11:10:07;3.17;;;0.82;;
9906;SDS011;4992;51.628;6.664;2023-12-29T11:12:37;2.45;;;0.50;;
9906;SDS011;4992;51.628;6.664;2023-12-29T11:15:04;1.75;;;0.40;;
9906;SDS011;4992;51.628;6.664;2023-12-29T11:17:32;2.40;;;0.60;;
9906;SDS011;4992;51.628;6.664;2023-12-29T11:20:03;1.40;;;0.60;;
9906;SDS011;4992;51.628;6.664;2023-12-29T11:22:29;0.93;;;0.45;;
9906;SDS011;4992;51.628;6.664;2023-12-29T11:24:59;1.65;;;0.50;;
9906;SDS011;4992;51.628;6.664;2023-12-29T11:27:28;2.40;;;0.93;;
9906;SDS011;4992;51.628;6.664;2023-12-29T11:29:58;0.98;;;0.50;;
9906;SDS011;4992;51.628;6.664;2023-12-29T11:32:37;1.88;;;0.50;;
9906;SDS011;4992;51.628;6.664;2023-12-29T11:35:25;2.60;;;0.50;;
9906;SDS011;4992;51.628;6.664;2023-12-29T11:43:36;1.13;;;0.45;;
9906;SDS011;4992;51.628;6.664;2023-12-29T11:46:02;2.30;;;0.70;;
9906;SDS011;4992;51.628;6.664;2023-12-29T11:51:27;1.42;;;0.60;;
9906;SDS011;4992;51.628;6.664;2023-12-29T11:53:56;2.78;;;0.70;;
9906;SDS011;4992;51.628;6.664;2023-12-29T11:56:22;1.35;;;0.65;;
9906;SDS011;4992;51.628;6.664;2023-12-29T11:58:48;2.67;;;0.75;;
9906;SDS011;4992;51.628;6.664;2023-12-29T12:01:14;3.58;;;0.90;;
9906;SDS011;4992;51.628;6.664;2023-12-29T12:03:57;3.97;;;1.10;;
9906;SDS011;4992;51.628;6.664;2023-12-29T12:06:44;4.40;;;1.02;;
9906;SDS011;4992;51.628;6.664;2023-12-29T12:09:15;2.58;;;1.13;;
9906;SDS011;4992;51.628;6.664;2023-12-29T12:11:46;4.50;;;1.08;;
9906;SDS011;4992;51.628;6.664;2023-12-29T12:17:12;7.40;;;3.15;;
9906;SDS011;4992;51.628;6.664;2023-12-29T12:19:51;1.48;;;0.60;;
9906;SDS011;4992;51.628;6.664;2023-12-29T12:22:18;2.30;;;0.70;;
9906;SDS011;4992;51.628;6.664;2023-12-29T12:24:50;3.22;;;0.88;;
9906;SDS011;4992;51.628;6.664;2023-12-29T12:27:21;2.38;;;0.50;;
9906;SDS011;4992;51.628;6.664;2023-12-29T12:29:50;3.53;;;0.90;;
9906;SDS011;4992;51.628;6.664;2023-12-29T12:32:22;2.20;;;0.70;;
9906;SDS011;4992;51.628;6.664;2023-12-29T12:34:48;6.10;;;1.08;;
9906;SDS011;4992;51.628;6.664;2023-12-29T12:37:18;5.05;;;1.00;;
9906;SDS011;4992;51.628;6.664;2023-12-29T12:39:54;3.65;;;1.02;;
9906;SDS011;4992;51.628;6.664;2023-12-29T12:42:20;4.97;;;1.00;;
9906;SDS011;4992;51.628;6.664;2023-12-29T12:44:47;4.43;;;0.90;;
9906;SDS011;4992;51.628;6.664;2023-12-29T12:47:27;4.20;;;0.80;;
9906;SDS011;4992;51.628;6.664;2023-12-29T12:50:00;3.45;;;1.00;;
9906;SDS011;4992;51.628;6.664;2023-12-29T12:52:30;6.38;;;1.38;;
9906;SDS011;4992;51.628;6.664;2023-12-29T12:54:57;2.67;;;0.90;;
9906;SDS011;4992;51.628;6.664;2023-12-29T12:57:23;3.57;;;0.90;;
9906;SDS011;4992;51.628;6.664;2023-12-29T12:59:49;3.63;;;1.20;;
9906;SDS011;4992;51.628;6.664;2023-12-29T13:02:17;3.90;;;0.90;;
9906;SDS011;4992;51.628;6.664;2023-12-29T13:04:44;4.17;;;1.17;;
9906;SDS011;4992;51.628;6.664;2023-12-29T13:07:10;3.57;;;1.20;;
9906;SDS011;4992;51.628;6.664;2023-12-29T13:09:41;2.00;;;1.00;;
9906;SDS011;4992;51.628;6.664;2023-12-29T13:12:07;4.77;;;1.40;;
9906;SDS011;4992;51.628;6.664;2023-12-29T13:14:33;4.33;;;1.20;;
9906;SDS011;4992;51.628;6.664;2023-12-29T13:17:04;2.23;;;0.90;;
9906;SDS011;4992;51.628;6.664;2023-12-29T13:19:35;2.03;;;0.80;;
9906;SDS011;4992;51.628;6.664;2023-12-29T13:22:01;4.30;;;0.80;;
9906;SDS011;4992;51.628;6.664;2023-12-29T13:24:30;1.93;;;0.80;;
9906;SDS011;4992;51.628;6.664;2023-12-29T13:27:05;4.27;;;0.77;;
9906;SDS011;4992;51.628;6.664;2023-12-29T13:29:32;1.83;;;0.80;;
9906;SDS011;4992;51.628;6.664;2023-12-29T13:32:05;0.90;;;0.60;;
9906;SDS011;4992;51.628;6.664;2023-12-29T13:37:53;1.20;;;0.43;;
9906;SDS011;4992;51.628;6.664;2023-12-29T13:40:42;0.87;;;0.40;;
9906;SDS011;4992;51.628;6.664;2023-12-29T13:43:38;1.33;;;0.50;;
9906;SDS011;4992;51.628;6.664;2023-12-29T13:46:07;1.90;;;0.53;;
9906;SDS011;4992;51.628;6.664;2023-12-29T13:48:36;0.90;;;0.47;;
9906;SDS011;4992;51.628;6.664;2023-12-29T13:51:02;1.33;;;0.60;;
9906;SDS011;4992;51.628;6.664;2023-12-29T13:53:28;1.73;;;1.40;;
9906;SDS011;4992;51.628;6.664;2023-12-29T13:56:05;2.83;;;1.03;;
9906;SDS011;4992;51.628;6.664;2023-12-29T13:58:35;5.20;;;0.83;;
9906;SDS011;4992;51.628;6.664;2023-12-29T14:01:01;1.40;;;0.93;;
9906;SDS011;4992;51.628;6.664;2023-12-29T14:03:31;2.53;;;0.70;;
9906;SDS011;4992;51.628;6.664;2023-12-29T14:06:07;3.83;;;1.10;;
9906;SDS011;4992;51.628;6.664;2023-12-29T14:08:33;1.70;;;0.80;;
9906;SDS011;4992;51.628;6.664;2023-12-29T14:11:08;1.10;;;0.67;;
9906;SDS011;4992;51.628;6.664;2023-12-29T14:13:34;3.17;;;0.87;;
9906;SDS011;4992;51.628;6.664;2023-12-29T14:16:00;2.43;;;0.70;;
9906;SDS011;4992;51.628;6.664;2023-12-29T14:18:45;2.27;;;0.70;;
9906;SDS011;4992;51.628;6.664;2023-12-29T14:21:22;3.50;;;0.70;;
9906;SDS011;4992;51.628;6.664;2023-12-29T14:23:58;1.87;;;0.80;;
9906;SDS011;4992;51.628;6.664;2023-12-29T14:26:41;1.13;;;0.60;;
9906;SDS011;4992;51.628;6.664;2023-12-29T14:29:18;2.30;;;0.80;;
9906;SDS011;4992;51.628;6.664;2023-12-29T14:31:45;2.80;;;1.30;;
9906;SDS011;4992;51.628;6.664;2023-12-29T14:34:11;4.17;;;1.50;;
9906;SDS011;4992;51.628;6.664;2023-12-29T14:36:41;2.80;;;1.20;;
9906;SDS011;4992;51.628;6.664;2023-12-29T14:39:07;2.40;;;0.90;;
9906;SDS011;4992;51.628;6.664;2023-12-29T14:41:35;6.43;;;1.87;;
9906;SDS011;4992;51.628;6.664;2023-12-29T14:44:01;2.37;;;1.60;;
9906;SDS011;4992;51.628;6.664;2023-12-29T14:46:26;2.03;;;1.40;;
9906;SDS011;4992;51.628;6.664;2023-12-29T14:48:53;4.30;;;1.60;;
9906;SDS011;4992;51.628;6.664;2023-12-29T14:51:19;5.70;;;1.70;;
9906;SDS011;4992;51.628;6.664;2023-12-29T14:53:45;3.33;;;1.53;;
9906;SDS011;4992;51.628;6.664;2023-12-29T14:56:13;3.30;;;1.57;;
9906;SDS011;4992;51.628;6.664;2023-12-29T14:58:39;5.03;;;1.90;;
9906;SDS011;4992;51.628;6.664;2023-12-29T15:01:05;6.40;;;1.93;;
9906;SDS011;4992;51.628;6.664;2023-12-29T15:03:31;5.50;;;1.97;;
9906;SDS011;4992;51.628;6.664;2023-12-29T15:05:57;3.63;;;1.38;;
9906;SDS011;4992;51.628;6.664;2023-12-29T15:08:23;6.00;;;1.83;;
9906;SDS011;4992;51.628;6.664;2023-12-29T15:10:49;2.93;;;1.40;;
9906;SDS011;4992;51.628;6.664;2023-12-29T15:13:15;5.67;;;1.53;;
9906;SDS011;4992;51.628;6.664;2023-12-29T15:15:41;2.40;;;1.23;;
9906;SDS011;4992;51.628;6.664;2023-12-29T15:18:07;5.37;;;1.20;;
9906;SDS011;4992;51.628;6.664;2023-12-29T15:20:32;4.10;;;1.07;;
9906;SDS011;4992;51.628;6.664;2023-12-29T15:22:58;1.13;;;0.80;;
9906;SDS011;4992;51.628;6.664;2023-12-29T15:25:25;2.10;;;1.03;;
9906;SDS011;4992;51.628;6.664;2023-12-29T15:27:52;2.65;;;0.70;;
9906;SDS011;4992;51.628;6.664;2023-12-29T15:30:18;3.10;;;0.80;;
9906;SDS011;4992;51.628;6.664;2023-12-29T15:32:43;1.47;;;0.83;;
9906;SDS011;4992;51.628;6.664;2023-12-29T15:35:09;1.67;;;0.70;;
9906;SDS011;4992;51.628;6.664;2023-12-29T15:37:34;2.40;;;0.60;;